sensor_id;sensor_type;location;lat;lon;timestamp;P1;durP1;ratioP1;P2;durP2;ratioP2
42846;SDS011;75159;49.916;14.536;2024-01-06T00:05:14;36.28;;;20.35;;
42846;SDS011;75159;49.916;14.536;2024-01-06T00:15:36;32.13;;;17.05;;
42846;SDS011;75159;49.916;14.536;2024-01-06T00:25:57;43.95;;;21.92;;
42846;SDS011;75159;49.916;14.536;2024-01-06T00:36:18;36.17;;;20.98;;
42846;SDS011;75159;49.916;14.536;2024-01-06T00:46:39;38.97;;;23.05;;
42846;SDS011;75159;49.916;14.536;2024-01-06T00:57:00;50.15;;;26.33;;
42846;SDS011;75159;49.916;14.536;2024-01-06T01:07:22;42.28;;;22.45;;
42846;SDS011;75159;49.916;14.536;2024-01-06T01:17:43;34.72;;;20.30;;
42846;SDS011;75159;49.916;14.536;2024-01-06T01:28:05;37.13;;;19.95;;
42846;SDS011;75159;49.916;14.536;2024-01-06T01:38:25;39.33;;;21.13;;
42846;SDS011;75159;49.916;14.536;2024-01-06T01:48:46;39.95;;;22.38;;
42846;SDS011;75159;49.916;14.536;2024-01-06T01:59:11;35.17;;;20.42;;
42846;SDS011;75159;49.916;14.536;2024-01-06T02:09:35;32.78;;;19.05;;
42846;SDS011;75159;49.916;14.536;2024-01-06T02:19:56;38.03;;;21.20;;
42846;SDS011;75159;49.916;14.536;2024-01-06T02:30:17;31.77;;;17.02;;
42846;SDS011;75159;49.916;14.536;2024-01-06T02:40:38;28.20;;;14.85;;
42846;SDS011;75159;49.916;14.536;2024-01-06T02:50:59;26.02;;;14.63;;
42846;SDS011;75159;49.916;14.536;2024-01-06T03:01:20;20.75;;;13.45;;
42846;SDS011;75159;49.916;14.536;2024-01-06T03:11:41;23.35;;;14.35;;
42846;SDS011;75159;49.916;14.536;2024-01-06T03:22:02;19.85;;;11.68;;
42846;SDS011;75159;49.916;14.536;2024-01-06T03:32:23;22.70;;;11.50;;
42846;SDS011;75159;49.916;14.536;2024-01-06T03:42:45;18.77;;;10.75;;
42846;SDS011;75159;49.916;14.536;2024-01-06T03:53:06;17.45;;;11.10;;
42846;SDS011;75159;49.916;14.536;2024-01-06T04:03:27;20.70;;;11.30;;
42846;SDS011;75159;49.916;14.536;2024-01-06T04:13:48;21.17;;;11.82;;
42846;SDS011;75159;49.916;14.536;2024-01-06T04:24:08;22.13;;;12.25;;
42846;SDS011;75159;49.916;14.536;2024-01-06T04:34:29;16.48;;;10.43;;
42846;SDS011;75159;49.916;14.536;2024-01-06T04:44:51;14.48;;;10.10;;
42846;SDS011;75159;49.916;14.536;2024-01-06T04:55:12;19.40;;;11.60;;
42846;SDS011;75159;49.916;14.536;2024-01-06T05:05:33;14.00;;;8.32;;
42846;SDS011;75159;49.916;14.536;2024-01-06T05:15:54;11.13;;;7.68;;
42846;SDS011;75159;49.916;14.536;2024-01-06T05:26:15;13.73;;;8.20;;
42846;SDS011;75159;49.916;14.536;2024-01-06T05:36:36;12.07;;;7.28;;
42846;SDS011;75159;49.916;14.536;2024-01-06T05:46:57;12.05;;;6.30;;
42846;SDS011;75159;49.916;14.536;2024-01-06T05:57:18;11.18;;;5.88;;
42846;SDS011;75159;49.916;14.536;2024-01-06T06:07:39;7.78;;;5.32;;
42846;SDS011;75159;49.916;14.536;2024-01-06T06:18:00;7.95;;;5.38;;
42846;SDS011;75159;49.916;14.536;2024-01-06T06:28:21;7.45;;;4.88;;
42846;SDS011;75159;49.916;14.536;2024-01-06T06:38:43;10.38;;;5.53;;
42846;SDS011;75159;49.916;14.536;2024-01-06T06:49:04;12.00;;;7.03;;
42846;SDS011;75159;49.916;14.536;2024-01-06T06:59:25;17.73;;;9.80;;
42846;SDS011;75159;49.916;14.536;2024-01-06T07:09:46;20.23;;;10.15;;
42846;SDS011;75159;49.916;14.536;2024-01-06T07:20:07;21.95;;;11.48;;
42846;SDS011;75159;49.916;14.536;2024-01-06T07:30:29;21.60;;;12.20;;
42846;SDS011;75159;49.916;14.536;2024-01-06T07:40:50;23.98;;;11.73;;
42846;SDS011;75159;49.916;14.536;2024-01-06T07:51:11;18.48;;;11.63;;
42846;SDS011;75159;49.916;14.536;2024-01-06T08:01:32;21.42;;;12.52;;
42846;SDS011;75159;49.916;14.536;2024-01-06T08:11:53;20.92;;;12.55;;
42846;SDS011;75159;49.916;14.536;2024-01-06T08:22:14;23.65;;;12.68;;
42846;SDS011;75159;49.916;14.536;2024-01-06T08:32:35;21.83;;;12.13;;
42846;SDS011;75159;49.916;14.536;2024-01-06T08:42:56;26.05;;;14.00;;
42846;SDS011;75159;49.916;14.536;2024-01-06T08:53:17;24.15;;;13.32;;
42846;SDS011;75159;49.916;14.536;2024-01-06T09:03:38;21.10;;;12.60;;
42846;SDS011;75159;49.916;14.536;2024-01-06T09:14:00;17.20;;;10.18;;
42846;SDS011;75159;49.916;14.536;2024-01-06T09:24:21;17.50;;;10.32;;
42846;SDS011;75159;49.916;14.536;2024-01-06T09:34:42;19.05;;;10.00;;
42846;SDS011;75159;49.916;14.536;2024-01-06T09:45:04;19.92;;;11.45;;
42846;SDS011;75159;49.916;14.536;2024-01-06T09:55:26;20.65;;;10.48;;
42846;SDS011;75159;49.916;14.536;2024-01-06T10:05:48;23.38;;;10.90;;
42846;SDS011;75159;49.916;14.536;2024-01-06T10:16:09;27.10;;;12.77;;
42846;SDS011;75159;49.916;14.536;2024-01-06T10:26:30;26.30;;;13.18;;
42846;SDS011;75159;49.916;14.536;2024-01-06T10:36:52;31.95;;;13.63;;
42846;SDS011;75159;49.916;14.536;2024-01-06T10:47:14;26.55;;;12.00;;
42846;SDS011;75159;49.916;14.536;2024-01-06T10:57:37;31.20;;;14.40;;
42846;SDS011;75159;49.916;14.536;2024-01-06T11:07:59;26.23;;;12.73;;
42846;SDS011;75159;49.916;14.536;2024-01-06T11:28:56;40.53;;;17.63;;
42846;SDS011;75159;49.916;14.536;2024-01-06T11:39:35;46.88;;;18.67;;
42846;SDS011;75159;49.916;14.536;2024-01-06T11:50:02;48.28;;;20.40;;
42846;SDS011;75159;49.916;14.536;2024-01-06T12:00:27;44.22;;;20.80;;
42846;SDS011;75159;49.916;14.536;2024-01-06T12:10:49;44.80;;;20.33;;
42846;SDS011;75159;49.916;14.536;2024-01-06T12:21:10;47.30;;;22.30;;
42846;SDS011;75159;49.916;14.536;2024-01-06T12:31:32;42.90;;;20.23;;
42846;SDS011;75159;49.916;14.536;2024-01-06T12:41:58;47.88;;;20.98;;
42846;SDS011;75159;49.916;14.536;2024-01-06T12:52:20;52.95;;;22.98;;
42846;SDS011;75159;49.916;14.536;2024-01-06T13:02:43;32.80;;;16.83;;
42846;SDS011;75159;49.916;14.536;2024-01-06T13:13:04;48.58;;;22.10;;
42846;SDS011;75159;49.916;14.536;2024-01-06T13:23:26;46.05;;;21.30;;
42846;SDS011;75159;49.916;14.536;2024-01-06T13:33:47;39.45;;;18.52;;
42846;SDS011;75159;49.916;14.536;2024-01-06T13:44:08;42.72;;;20.80;;
42846;SDS011;75159;49.916;14.536;2024-01-06T13:54:30;47.60;;;22.55;;
42846;SDS011;75159;49.916;14.536;2024-01-06T14:04:52;54.42;;;21.55;;
42846;SDS011;75159;49.916;14.536;2024-01-06T14:15:13;42.90;;;19.35;;
42846;SDS011;75159;49.916;14.536;2024-01-06T14:25:34;50.80;;;22.25;;
42846;SDS011;75159;49.916;14.536;2024-01-06T14:35:55;57.20;;;22.85;;
42846;SDS011;75159;49.916;14.536;2024-01-06T14:46:16;47.83;;;20.20;;
42846;SDS011;75159;49.916;14.536;2024-01-06T14:56:39;38.65;;;17.88;;
42846;SDS011;75159;49.916;14.536;2024-01-06T15:07:01;33.95;;;16.35;;
42846;SDS011;75159;49.916;14.536;2024-01-06T15:17:23;29.67;;;13.60;;
42846;SDS011;75159;49.916;14.536;2024-01-06T15:27:45;34.90;;;16.02;;
42846;SDS011;75159;49.916;14.536;2024-01-06T15:38:07;30.00;;;14.25;;
42846;SDS011;75159;49.916;14.536;2024-01-06T15:48:28;31.00;;;14.73;;
42846;SDS011;75159;49.916;14.536;2024-01-06T15:58:49;32.60;;;15.63;;
42846;SDS011;75159;49.916;14.536;2024-01-06T16:09:15;34.58;;;16.15;;
42846;SDS011;75159;49.916;14.536;2024-01-06T16:19:35;30.55;;;15.13;;
42846;SDS011;75159;49.916;14.536;2024-01-06T16:29:57;36.95;;;18.05;;
42846;SDS011;75159;49.916;14.536;2024-01-06T16:40:18;35.10;;;15.73;;
42846;SDS011;75159;49.916;14.536;2024-01-06T16:50:39;27.30;;;14.35;;
42846;SDS011;75159;49.916;14.536;2024-01-06T17:01:04;29.08;;;15.60;;
42846;SDS011;75159;49.916;14.536;2024-01-06T17:11:26;24.58;;;12.10;;
42846;SDS011;75159;49.916;14.536;2024-01-06T17:21:47;21.27;;;11.10;;
42846;SDS011;75159;49.916;14.536;2024-01-06T17:32:08;32.10;;;17.35;;
42846;SDS011;75159;49.916;14.536;2024-01-06T17:42:29;21.10;;;11.48;;
42846;SDS011;75159;49.916;14.536;2024-01-06T17:52:51;29.70;;;14.23;;
42846;SDS011;75159;49.916;14.536;2024-01-06T18:03:11;28.42;;;14.18;;
42846;SDS011;75159;49.916;14.536;2024-01-06T18:13:32;30.98;;;15.25;;
42846;SDS011;75159;49.916;14.536;2024-01-06T18:23:53;29.38;;;15.02;;
42846;SDS011;75159;49.916;14.536;2024-01-06T18:34:14;35.55;;;16.52;;
42846;SDS011;75159;49.916;14.536;2024-01-06T18:44:36;32.05;;;14.68;;
42846;SDS011;75159;49.916;14.536;2024-01-06T18:54:57;41.92;;;20.15;;
42846;SDS011;75159;49.916;14.536;2024-01-06T19:05:18;45.75;;;21.75;;
42846;SDS011;75159;49.916;14.536;2024-01-06T19:15:39;41.50;;;19.92;;
42846;SDS011;75159;49.916;14.536;2024-01-06T19:26:02;32.50;;;14.75;;
42846;SDS011;75159;49.916;14.536;2024-01-06T19:36:23;39.60;;;18.65;;
42846;SDS011;75159;49.916;14.536;2024-01-06T19:46:44;39.80;;;16.27;;
42846;SDS011;75159;49.916;14.536;2024-01-06T19:57:05;41.78;;;18.98;;
42846;SDS011;75159;49.916;14.536;2024-01-06T20:07:28;34.00;;;14.15;;
42846;SDS011;75159;49.916;14.536;2024-01-06T20:17:50;35.08;;;17.20;;
42846;SDS011;75159;49.916;14.536;2024-01-06T20:28:13;31.45;;;15.48;;
42846;SDS011;75159;49.916;14.536;2024-01-06T20:38:34;37.50;;;17.70;;
42846;SDS011;75159;49.916;14.536;2024-01-06T20:48:56;37.08;;;18.10;;
42846;SDS011;75159;49.916;14.536;2024-01-06T20:59:17;31.42;;;14.07;;
42846;SDS011;75159;49.916;14.536;2024-01-06T21:09:38;43.00;;;17.65;;
42846;SDS011;75159;49.916;14.536;2024-01-06T21:20:00;30.75;;;13.43;;
42846;SDS011;75159;49.916;14.536;2024-01-06T21:30:22;38.58;;;17.92;;
42846;SDS011;75159;49.916;14.536;2024-01-06T21:40:44;43.03;;;20.30;;
42846;SDS011;75159;49.916;14.536;2024-01-06T21:51:05;44.72;;;19.50;;
42846;SDS011;75159;49.916;14.536;2024-01-06T22:01:26;34.35;;;14.20;;
42846;SDS011;75159;49.916;14.536;2024-01-06T22:11:47;34.42;;;14.88;;
42846;SDS011;75159;49.916;14.536;2024-01-06T22:22:09;33.78;;;15.02;;
42846;SDS011;75159;49.916;14.536;2024-01-06T22:32:32;37.70;;;17.13;;
42846;SDS011;75159;49.916;14.536;2024-01-06T22:42:53;44.60;;;19.25;;
42846;SDS011;75159;49.916;14.536;2024-01-06T22:53:14;45.38;;;20.00;;
42846;SDS011;75159;49.916;14.536;2024-01-06T23:03:35;37.40;;;17.63;;
42846;SDS011;75159;49.916;14.536;2024-01-06T23:13:58;36.55;;;18.63;;
42846;SDS011;75159;49.916;14.536;2024-01-06T23:24:19;38.50;;;17.08;;
42846;SDS011;75159;49.916;14.536;2024-01-06T23:34:41;38.15;;;18.15;;
42846;SDS011;75159;49.916;14.536;2024-01-06T23:45:03;26.27;;;12.82;;
42846;SDS011;75159;49.916;14.536;2024-01-06T23:55:24;29.60;;;14.27;;
